Welshpool, United Kingdom
Current Conditions -  °F | °C
As of 5:50 PM on Friday 31 Oct 2014 (Local Time) from EGOS Reporting Station
Clear Clear  
Wind Chill: 64°   Ceiling: Unl
Heat Index: 64°   Visibility: 6mi
Dew Point: 55°   Wind: 15mph
Humidity: 73%   Direction: 170°S
Pressure: 29.83"   Gusts: NA
Location:  52.66°N, 3.15°W
Report Text: EGOS 311750Z AUTO 17013KT 9999 NCD 18/13 Q1010
Loading
Personal Weather Stations






























Interactive Weather Map
Tropical Storm Tracking
New forecast layout! Learn more

10-Day Weather Forecast

Advertisements
Track Severe Weather on mobile